Flight Track Log - Related Links

Times and Time Zones

All times are in EDT time to prevent confusion due to time zone crossing. See the PKW653 flight status page for this flight to view local times or setup timezone preferences in your user account.

Time Position Orientation Groundspeed Altitude Reporting Facility
EDT Latitude Longitude Course Direction KTS MPH feet Rate Location/Type
Sat 10:56:14 AM 42.6622 -83.4547 255° West 166 191 1,600  Level Cleveland Center
Sat 10:57:03 AM 42.6517 -83.5100 255° West 196 226 3,000 1,745 Climbing Cleveland Center
Sat 10:58:04 AM 42.6158 -83.5672 230° Southwest 184 212 4,800 923 Climbing Cleveland Center
Sat 10:59:13 AM 42.5894 -83.6192 235° Southwest 181 208 5,000 92 Climbing Cleveland Center
Sat 11:00:14 AM 42.5583 -83.6683 229° Southwest 177 204 5,000 341 Level Cleveland Center
Sat 11:01:16 AM 42.5303 -83.7192 233° Southwest 173 199 5,700 1,268 Climbing Cleveland Center
Sat 11:02:17 AM 42.5031 -83.7831 240° Southwest 174 200 7,600 1,574 Climbing Cleveland Center
Sat 11:03:18 AM 42.4642 -83.8378 226° Southwest 182 209 8,900 1,171 Climbing Cleveland Center
Sat 11:04:20 AM 42.4339 -83.8944 234° Southwest 185 213 10,000 1,122 Climbing Cleveland Center
Sat 11:05:21 AM 42.4028 -83.9503 233° Southwest 185 213 11,200 1,122 Climbing Cleveland Center
Sat 11:06:23 AM 42.3725 -84.0006 231° Southwest 179 206 12,300 1,073 Climbing Cleveland Center
Sat 11:07:24 AM 42.3456 -84.0531 235° Southwest 173 199 13,400 1,082 Climbing Cleveland Center
Sat 11:08:25 AM 42.3183 -84.1083 236° Southwest 176 203 14,500 976 Climbing Cleveland Center
Sat 11:09:27 AM 42.3036 -84.1697 252° West 175 201 15,400 780 Climbing Cleveland Center
Sat 11:10:28 AM 42.2783 -84.2442 245° Southwest 180 207 16,100 344 Climbing Cleveland Center
Sat 11:11:29 AM 42.2556 -84.3142 246° West 204 235 16,100 -49 Level Cleveland Center
Sat 11:12:31 AM 42.2303 -84.3906 246° West 219 252 16,000 -49 Descending Cleveland Center
Sat 11:13:32 AM 42.2053 -84.4714 247° West 230 265 16,000  Level Cleveland Center
Sat 11:14:33 AM 42.1778 -84.5547 246° West 240 276 16,000 -49 Level Cleveland Center
Sat 11:15:34 AM 42.1500 -84.6392 246° West 245 282 15,900 49 Descending Cleveland Center
Sat 11:16:36 AM 42.1206 -84.7353 248° West 246 283 16,100 100 Climbing Cleveland Center
Sat 11:17:34 AM 42.0947 -84.8064 244° Southwest 246 283 16,100 -50 Level Chicago Center
Sat 11:18:36 AM 42.0692 -84.8925 248° West 246 283 16,000  Descending Chicago Center
Sat 11:19:37 AM 42.0350 -84.9742 241° Southwest 249 287 16,100 49 Climbing Chicago Center
Sat 11:20:39 AM 41.9986 -85.0725 244° Southwest 252 290 16,100  Level Chicago Center
Sat 11:21:41 AM 41.9739 -85.1511 247° West 249 287 16,100 -48 Level Chicago Center
Sat 11:22:43 AM 41.9519 -85.2356 251° West 245 282 16,000 49 Descending Chicago Center
Sat 11:23:44 AM 41.9267 -85.3197 248° West 244 281 16,200  Climbing Chicago Center
Sat 11:24:46 AM 41.8914 -85.4172 244° Southwest 244 281 16,000 -48 Descending Chicago Center
Sat 11:25:48 AM 41.8608 -85.4992 243° Southwest 245 282 16,100  Climbing Chicago Center
Sat 11:26:49 AM 41.8339 -85.5831 247° West 245 282 16,000 -49 Descending Chicago Center
Sat 11:27:51 AM 41.8081 -85.6672 248° West 246 283 16,000  Level Chicago Center
Sat 11:28:53 AM 41.7800 -85.7506 246° West 247 284 16,000  Level Chicago Center
Sat 11:29:54 AM 41.7503 -85.8347 245° Southwest 248 285 16,000  Level Chicago Center
Sat 11:30:56 AM 41.7156 -85.9336 245° Southwest 248 285 16,000  Level Chicago Center
Sat 11:31:58 AM 41.6886 -86.0164 246° West 246 283 16,000  Level Chicago Center
Sat 11:32:59 AM 41.6597 -86.0997 245° Southwest 247 284 16,000  Level Chicago Center
Sat 11:34:01 AM 41.6300 -86.1814 244° Southwest 247 284 16,000  Level Chicago Center
Sat 11:35:03 AM 41.6031 -86.2644 247° West 245 282 16,000 -49 Level Chicago Center
Sat 11:36:04 AM 41.5764 -86.3458 246° West 242 278 15,900 -49 Descending Chicago Center
Sat 11:37:06 AM 41.5472 -86.4258 244° Southwest 241 277 15,900  Level Chicago Center
Sat 11:38:07 AM 41.5106 -86.5225 243° Southwest 242 278 15,900  Level Chicago Center
Sat 11:39:09 AM 41.4842 -86.6039 247° West 242 278 15,900  Level Chicago Center
Sat 11:40:11 AM 41.4519 -86.6836 242° Southwest 243 280 15,900 98 Level Chicago Center
Sat 11:41:12 AM 41.4258 -86.7739 249° West 240 276 16,100 49 Climbing Chicago Center
Sat 11:42:14 AM 41.3983 -86.8528 245° Southwest 235 270 16,000  Descending Chicago Center
Sat 11:43:16 AM 41.3669 -86.9367 244° Southwest 237 273 16,100  Climbing Chicago Center
Sat 11:44:17 AM 41.3381 -87.0150 244° Southwest 236 272 16,000 -49 Descending Chicago Center
Sat 11:45:19 AM 41.3297 -87.0956 262° West 219 252 16,000  Level Chicago Center
Sat 11:46:21 AM 41.3261 -87.1817 267° West 216 249 16,000  Level Chicago Center
Sat 11:47:22 AM 41.3033 -87.2556 248° West 226 260 16,000  Level Chicago Center
Sat 11:48:24 AM 41.2711 -87.3294 240° Southwest 233 268 16,000  Level Chicago Center
Sat 11:49:26 AM 41.2400 -87.4117 243° Southwest 232 267 16,000 -49 Level Chicago Center
Sat 11:50:27 AM 41.2139 -87.4903 246° West 232 267 15,900  Descending Chicago Center
Sat 11:51:29 AM 41.1892 -87.5694 247° West 232 267 16,000  Climbing Chicago Center
Sat 11:52:31 AM 41.1606 -87.6481 244° Southwest 234 269 15,900 -49 Descending Chicago Center
Sat 11:53:32 AM 41.1322 -87.7356 247° West 238 274 15,900  Level Chicago Center
Sat 11:54:34 AM 41.1008 -87.8144 242° Southwest 239 275 15,900  Level Chicago Center
Sat 11:55:35 AM 41.0719 -87.8944 244° Southwest 241 277 15,900  Level Chicago Center
Sat 11:56:37 AM 41.0392 -87.9789 243° Southwest 240 276 15,900  Level Chicago Center
Sat 11:57:38 AM 41.0108 -88.0572 244° Southwest 238 274 15,900 98 Level Chicago Center
Sat 11:58:40 AM 40.9822 -88.1353 244° Southwest 236 272 16,100 94 Climbing Chicago Center
Sat 11:59:45 AM 40.9547 -88.2186 246° West 236 272 16,100 -47 Level Chicago Center
Sat 12:00:47 PM 40.9169 -88.2936 236° Southwest 242 278 16,000  Descending Chicago Center
Sat 12:01:48 PM 40.8892 -88.3736 245° Southwest 242 278 16,100  Climbing Chicago Center
Sat 12:02:50 PM 40.8667 -88.4553 250° West 239 275 16,000  Descending Chicago Center
Sat 12:03:51 PM 40.8317 -88.5331 239° Southwest 244 281 16,100 49 Climbing Chicago Center
Sat 12:04:53 PM 40.7983 -88.6294 245° Southwest 242 278 16,100  Level Chicago Center
Sat 12:05:54 PM 40.7661 -88.7083 242° Southwest 243 280 16,100  Level Chicago Center
Sat 12:06:56 PM 40.7339 -88.7875 242° Southwest 243 280 16,100  Level Chicago Center
Sat 12:07:58 PM 40.7047 -88.8739 246° West 244 281 16,100 -49 Level Chicago Center
Sat 12:08:59 PM 40.6747 -88.9553 244° Southwest 244 281 16,000 -49 Descending Chicago Center
Sat 12:10:01 PM 40.6419 -89.0350 242° Southwest 245 282 16,000 49 Level Chicago Center
Sat 12:11:02 PM 40.6111 -89.1161 243° Southwest 245 282 16,100 49 Climbing Chicago Center
Sat 12:12:04 PM 40.5811 -89.1978 244° Southwest 246 283 16,100 -49 Level Chicago Center
Sat 12:13:05 PM 40.5464 -89.2792 241° Southwest 252 290 16,000  Descending Chicago Center
Sat 12:14:07 PM 40.5158 -89.3622 244° Southwest 253 291 16,100 49 Climbing Chicago Center
Sat 12:15:08 PM 40.4836 -89.4444 243° Southwest 253 291 16,100  Level Chicago Center
Sat 12:16:10 PM 40.4511 -89.5272 243° Southwest 253 291 16,100  Level Chicago Center
Sat 12:17:12 PM 40.4186 -89.6092 243° Southwest 253 291 16,100  Level Chicago Center
Sat 12:18:13 PM 40.3797 -89.7094 243° Southwest 254 292 16,100  Level Chicago Center
Sat 12:19:15 PM 40.3486 -89.7922 244° Southwest 255 293 16,100 -48 Level Chicago Center
Sat 12:20:17 PM 40.3147 -89.8733 241° Southwest 253 291 16,000 -49 Descending Chicago Center
Sat 12:21:18 PM 40.2797 -89.9558 241° Southwest 254 292 16,000  Level Chicago Center
Sat 12:22:20 PM 40.2542 -90.0394 248° West 249 287 16,000  Level Chicago Center
Sat 12:23:21 PM 40.2125 -90.1161 235° Southwest 255 293 16,000  Level Chicago Center
Sat 12:24:23 PM 40.1828 -90.1986 245° Southwest 252 290 16,000  Level Chicago Center
Sat 12:25:25 PM 40.1536 -90.2817 245° Southwest 251 289 16,000  Level Chicago Center
Sat 12:26:27 PM 40.1194 -90.3636 241° Southwest 255 293 16,000  Level Chicago Center
Sat 12:27:28 PM 40.0814 -90.4603 243° Southwest 253 291 16,000 65 Level Chicago Center
Sat 12:27:59 PM 40.0681 -90.4914 241° Southwest 252 290 16,100 65 Climbing Kansas Center
Sat 12:29:00 PM 40.0364 -90.5739 243° Southwest 252 290 16,100 -50 Level Kansas Center
Sat 12:30:00 PM 40.0025 -90.6542 241° Southwest 252 290 16,000 -48 Descending Kansas Center
Sat 12:31:04 PM 39.9711 -90.7356 243° Southwest 252 290 16,000 48 Level Kansas Center
Sat 12:32:05 PM 39.9297 -90.8150 236° Southwest 259 298 16,100  Climbing Kansas Center
Sat 12:33:06 PM 39.8953 -90.9150 246° West 254 292 16,000 -48 Descending Kansas Center
Sat 12:34:11 PM 39.8703 -90.9886 246° West 253 291 16,000 48 Level Kansas Center
Sat 12:35:11 PM 39.8256 -91.0817 238° Southwest 253 291 16,100  Climbing Kansas Center
Sat 12:36:14 PM 39.7906 -91.1625 241° Southwest 255 293 16,000 -48 Descending Kansas Center
Sat 12:37:15 PM 39.7619 -91.2439 245° Southwest 255 293 16,000  Level Kansas Center
Sat 12:38:16 PM 39.7303 -91.3269 244° Southwest 255 293 16,000 48 Level Kansas Center
Sat 12:39:20 PM 39.6919 -91.4086 239° Southwest 258 297 16,100 48 Climbing Kansas Center
Sat 12:40:21 PM 39.6558 -91.4914 240° Southwest 259 298 16,100 -97 Level Kansas Center
Sat 12:41:24 PM 39.6164 -91.5919 243° Southwest 260 299 15,900 -49 Descending Kansas Center
Sat 12:42:24 PM 39.5814 -91.6744 241° Southwest 260 299 16,000 50 Climbing Kansas Center
Sat 12:43:25 PM 39.5478 -91.7575 242° Southwest 260 299 16,000  Level Kansas Center
Sat 12:44:29 PM 39.5128 -91.8400 241° Southwest 261 300 16,000 48 Level Kansas Center
Sat 12:45:29 PM 39.4797 -91.9222 243° Southwest 261 300 16,100  Climbing Kansas Center
Sat 12:46:33 PM 39.4372 -92.0211 241° Southwest 261 300 16,000 -48 Descending Kansas Center
Sat 12:47:34 PM 39.4031 -92.1039 242° Southwest 261 300 16,000 49 Level Kansas Center
Sat 12:48:36 PM 39.3669 -92.1858 240° Southwest 262 302 16,100  Climbing Kansas Center
Sat 12:49:37 PM 39.3306 -92.2678 240° Southwest 262 302 16,000 -97 Descending Kansas Center
Sat 12:50:40 PM 39.2947 -92.3517 241° Southwest 264 304 15,900  Descending Kansas Center
Sat 12:51:42 PM 39.2519 -92.4469 240° Southwest 264 304 16,000 49 Climbing Kansas Center
Sat 12:52:43 PM 39.2147 -92.5278 239° Southwest 264 304 16,000 -48 Level Kansas Center
Sat 12:53:46 PM 39.1808 -92.6100 242° Southwest 264 304 15,900 -48 Descending Kansas Center
Sat 12:54:48 PM 39.1486 -92.6942 244° Southwest 264 304 15,900 98 Level Kansas Center
Sat 12:55:48 PM 39.1067 -92.7728 236° Southwest 264 304 16,100 97 Climbing Kansas Center
Sat 12:56:52 PM 39.0764 -92.8550 245° Southwest 262 302 16,100 -48 Level Kansas Center
Sat 12:57:52 PM 39.0422 -92.9372 242° Southwest 259 298 16,000 -49 Descending Kansas Center
Sat 12:58:55 PM 38.9983 -93.0347 240° Southwest 260 299 16,000 48 Level Kansas Center
Sat 12:59:58 PM 38.9597 -93.1172 239° Southwest 261 300 16,100  Climbing Kansas Center
Sat 01:00:58 PM 38.9247 -93.2028 242° Southwest 266 306 16,000  Descending Kansas Center
Sat 01:02:02 PM 38.8881 -93.2847 240° Southwest 266 306 16,100  Climbing Kansas Center
Sat 01:03:03 PM 38.8525 -93.3661 241° Southwest 266 306 16,000 -98 Descending Kansas Center
Sat 01:04:04 PM 38.8067 -93.4669 240° Southwest 267 307 15,900  Descending Kansas Center
Sat 01:05:08 PM 38.7686 -93.5506 240° Southwest 268 308 16,000 48 Climbing Kansas Center
Sat 01:06:09 PM 38.7314 -93.6333 240° Southwest 268 308 16,000  Level Kansas Center
Sat 01:07:10 PM 38.6961 -93.7175 242° Southwest 268 308 16,000  Level Kansas Center
Sat 01:08:13 PM 38.6608 -93.7942 240° Southwest 268 308 16,000  Level Kansas Center
Sat 01:09:15 PM 38.6167 -93.8967 241° Southwest 270 311 16,000 -49 Level Kansas Center
Sat 01:10:16 PM 38.5783 -93.9778 239° Southwest 271 312 15,900 -96 Descending Kansas Center
Sat 01:11:20 PM 38.5358 -94.0597 236° Southwest 271 312 15,800 97 Descending Kansas Center
Sat 01:12:20 PM 38.5011 -94.1458 243° Southwest 274 315 16,100 98 Climbing Kansas Center
Sat 01:13:23 PM 38.4644 -94.2286 241° Southwest 272 313 16,000  Descending Kansas Center
Sat 01:14:24 PM 38.4256 -94.3122 239° Southwest 272 313 16,100  Climbing Kansas Center
Sat 01:15:27 PM 38.3886 -94.3978 241° Southwest 274 315 16,000 -48 Descending Kansas Center
Sat 01:16:28 PM 38.3439 -94.4958 240° Southwest 273 314 16,000  Level Kansas Center
Sat 01:17:31 PM 38.3042 -94.5806 239° Southwest 274 315 16,000 49 Level Kansas Center
Sat 01:18:31 PM 38.2628 -94.6619 237° Southwest 274 315 16,100  Climbing Kansas Center
Sat 01:19:35 PM 38.2231 -94.7458 239° Southwest 274 315 16,000  Descending Kansas Center
Sat 01:20:36 PM 38.1861 -94.8317 241° Southwest 274 315 16,100  Climbing Kansas Center
Sat 01:21:38 PM 38.1489 -94.9164 241° Southwest 274 315 16,000 -435 Descending Kansas Center
Sat 01:22:40 PM 38.0997 -95.0156 238° Southwest 274 315 15,200 -829 Descending Kansas Center
Sat 01:23:41 PM 38.0581 -95.1044 239° Southwest 282 325 14,300 -576 Descending Kansas Center
Sat 01:24:45 PM 38.0206 -95.1947 242° Southwest 287 330 14,000 -144 Descending Kansas Center
Sat 01:25:46 PM 37.9822 -95.2764 239° Southwest 275 316 14,000  Level Kansas Center
Sat 01:26:47 PM 37.9447 -95.3600 240° Southwest 272 313 14,000  Level Kansas Center
Sat 01:27:51 PM 37.9067 -95.4522 242° Southwest 272 313 14,000  Level Kansas Center
Sat 01:28:51 PM 37.8658 -95.5319 237° Southwest 272 313 14,000  Level Kansas Center
Sat 01:29:55 PM 37.8244 -95.6128 237° Southwest 271 312 14,000  Level Kansas Center
Sat 01:30:57 PM 37.7814 -95.6903 235° Southwest 272 313 14,000  Level Kansas Center
Sat 01:31:58 PM 37.7447 -95.7714 240° Southwest 270 311 14,000 -49 Level Kansas Center
Sat 01:32:59 PM 37.6967 -95.8717 239° Southwest 273 314 13,900  Descending Kansas Center
Sat 01:34:02 PM 37.6611 -95.9511 241° Southwest 269 310 14,000  Climbing Kansas Center
Sat 01:35:04 PM 37.6217 -96.0267 237° Southwest 263 303 13,900  Descending Kansas Center
Sat 01:36:04 PM 37.5853 -96.1047 240° Southwest 263 303 14,000 48 Climbing Kansas Center
Sat 01:37:08 PM 37.5483 -96.1825 239° Southwest 262 302 14,000  Level Kansas Center
Sat 01:38:09 PM 37.5092 -96.2589 237° Southwest 260 299 14,000  Level Kansas Center
Sat 01:39:11 PM 37.4744 -96.3372 241° Southwest 260 299 14,000  Level Kansas Center
Sat 01:40:15 PM 37.4281 -96.4256 237° Southwest 257 296 14,000 -48 Level Kansas Center
Sat 01:41:16 PM 37.3917 -96.5042 240° Southwest 256 295 13,900 -50 Descending Kansas Center
Sat 01:42:16 PM 37.3539 -96.5797 238° Southwest 257 296 13,900 48 Level Kansas Center
Sat 01:43:20 PM 37.3167 -96.6553 238° Southwest 256 295 14,000  Climbing Kansas Center
Sat 01:44:20 PM 37.2822 -96.7314 240° Southwest 256 295 13,900  Descending Kansas Center
Sat 01:45:23 PM 37.2461 -96.8069 239° Southwest 256 295 14,000 48 Climbing Kansas Center
Sat 01:46:25 PM 37.2064 -96.8825 237° Southwest 255 293 14,000  Level Kansas Center
Sat 01:47:28 PM 37.1661 -96.9589 237° Southwest 258 297 14,000 48 Level Kansas Center
Sat 01:48:30 PM 37.1219 -97.0517 239° Southwest 258 297 14,100  Climbing Kansas Center
Sat 01:49:30 PM 37.0836 -97.1283 238° Southwest 258 297 14,000 -48 Descending Kansas Center
Sat 01:50:34 PM 37.0453 -97.2042 238° Southwest 258 297 14,000  Level Kansas Center
Sat 01:51:34 PM 37.0056 -97.2808 237° Southwest 258 297 14,000  Level Kansas Center
Sat 01:52:38 PM 36.9686 -97.3589 239° Southwest 259 298 14,000  Level Kansas Center
Sat 01:53:40 PM 36.9317 -97.4347 239° Southwest 259 298 14,000  Level Kansas Center
Sat 01:54:40 PM 36.8842 -97.5258 237° Southwest 258 297 14,000  Level Kansas Center
Sat 01:55:42 PM 36.8453 -97.6019 237° Southwest 259 298 14,000  Level Kansas Center
Sat 01:56:44 PM 36.8061 -97.6808 238° Southwest 260 299 14,000  Level Kansas Center
Sat 01:57:47 PM 36.7628 -97.7647 237° Southwest 260 299 14,000  Level Kansas Center
Sat 01:58:49 PM 36.7253 -97.8411 239° Southwest 260 299 14,000  Level Kansas Center
Sat 01:59:49 PM 36.6875 -97.9175 238° Southwest 260 299 14,000 48 Level Kansas Center
Sat 02:00:53 PM 36.6494 -97.9950 239° Southwest 260 299 14,100  Climbing Kansas Center
Sat 02:01:53 PM 36.6092 -98.0708 237° Southwest 260 299 14,000 -49 Descending Kansas Center
Sat 02:02:56 PM 36.5672 -98.1450 235° Southwest 260 299 14,000 48 Level Kansas Center
Sat 02:03:58 PM 36.5308 -98.2200 239° Southwest 259 298 14,100 32 Climbing Kansas Center
Sat 02:06:03 PM 36.4447 -98.3869 237° Southwest 259 298 14,100 -32 Level Kansas Center
Sat 02:07:03 PM 36.4053 -98.4614 237° Southwest 259 298 14,000 -97 Descending Kansas Center
Sat 02:08:07 PM 36.3681 -98.5364 238° Southwest 259 298 13,900  Descending Kansas Center
Sat 02:09:07 PM 36.3281 -98.6083 235° Southwest 256 295 14,000 49 Climbing Kansas Center
Sat 02:10:09 PM 36.2889 -98.6869 238° Southwest 262 302 14,000 48 Level Kansas Center
Sat 02:11:13 PM 36.2386 -98.7778 236° Southwest 267 307 14,100  Climbing Kansas Center
Sat 02:12:14 PM 36.1964 -98.8536 235° Southwest 266 306 14,000 -32 Descending Kansas Center
Sat 02:14:20 PM 36.1200 -99.0047 238° Southwest 261 300 14,000 32 Level Fort Center
Sat 02:15:22 PM 36.0833 -99.0800 239° Southwest 259 298 14,100 49 Climbing Fort Center
Sat 02:16:22 PM 36.0411 -99.1608 237° Southwest 252 290 14,100 -50 Level Kansas Center
Sat 02:17:22 PM 36.0069 -99.2353 240° Southwest 250 288 14,000 -48 Descending Kansas Center
Sat 02:18:27 PM 35.9661 -99.3061 235° Southwest 252 290 14,000  Level Kansas Center
Sat 02:19:28 PM 35.9247 -99.3769 234° Southwest 252 290 14,000  Level Kansas Center
Sat 02:20:28 PM 35.8847 -99.4478 235° Southwest 252 290 14,000  Level Kansas Center
Sat 02:21:32 PM 35.8406 -99.5344 238° Southwest 252 290 14,000  Level Kansas Center
Sat 02:22:34 PM 35.8028 -99.6056 237° Southwest 251 289 14,000 48 Level Kansas Center
Sat 02:23:38 PM 35.7647 -99.6764 237° Southwest 248 285 14,100  Climbing Fort Center
Sat 02:24:40 PM 35.7264 -99.7475 236° Southwest 248 285 14,000  Descending Fort Center
Sat 02:25:42 PM 35.6817 -99.8319 237° Southwest 248 285 14,100 80 Climbing Fort Center
Sat 02:25:55 PM 35.6747 -99.8464 239° Southwest 248 285 14,100  Level Fort Center
Sat 02:26:57 PM 35.6361 -99.9150 235° Southwest 246 283 14,100 -48 Level Fort Center
Sat 02:27:59 PM 35.5969 -99.9842 235° Southwest 246 283 14,000 -48 Descending Fort Center
Sat 02:29:01 PM 35.5589 -100.0536 236° Southwest 246 283 14,000  Level Fort Center
Sat 02:30:03 PM 35.5231 -100.1250 238° Southwest 246 283 14,000 -48 Level Fort Center
Sat 02:31:05 PM 35.4839 -100.1947 235° Southwest 246 283 13,900  Descending Fort Center
Sat 02:32:06 PM 35.4475 -100.2656 238° Southwest 246 283 14,000 98 Climbing Fort Center
Sat 02:33:08 PM 35.4008 -100.3472 235° Southwest 246 283 14,100 48 Climbing Fort Center
Sat 02:34:10 PM 35.3642 -100.4169 237° Southwest 246 283 14,100 -48 Level Fort Center
Sat 02:35:12 PM 35.3264 -100.4853 236° Southwest 245 282 14,000 -48 Descending Fort Center
Sat 02:36:14 PM 35.2864 -100.5542 235° Southwest 245 282 14,000 -48 Level Fort Center
Sat 02:37:16 PM 35.2503 -100.6236 238° Southwest 245 282 13,900  Descending Fort Center
Sat 02:38:20 PM 35.2042 -100.7094 237° Southwest 245 282 14,000 95 Climbing Albuquerque Center
Sat 02:39:22 PM 35.1647 -100.7775 235° Southwest 245 282 14,100 -49 Climbing Albuquerque Center
Sat 02:40:23 PM 35.1258 -100.8472 236° Southwest 245 282 13,900  Descending Albuquerque Center
Sat 02:41:25 PM 35.0867 -100.9161 235° Southwest 245 282 14,100 32 Climbing Albuquerque Center
Sat 02:43:28 PM 35.0086 -101.0553 236° Southwest 245 282 14,000 -32 Descending Albuquerque Center
Sat 02:44:30 PM 34.9719 -101.1233 237° Southwest 244 281 14,000 49 Level Albuquerque Center
Sat 02:45:31 PM 34.9336 -101.1908 235° Southwest 244 281 14,100 49 Climbing Albuquerque Center
Sat 02:46:33 PM 34.8875 -101.2739 236° Southwest 244 281 14,100 -48 Level Albuquerque Center
Sat 02:47:35 PM 34.8458 -101.3406 233° Southwest 244 281 14,000 -49 Descending Albuquerque Center
Sat 02:48:36 PM 34.8075 -101.4108 236° Southwest 245 282 14,000 35 Level Albuquerque Center
Sat 02:50:27 PM 34.7381 -101.5353 236° Southwest 245 282 14,100 35 Climbing Albuquerque Center
Sat 02:51:28 PM 34.7022 -101.6050 238° Southwest 245 282 14,100  Level Albuquerque Center
Sat 02:52:30 PM 34.6639 -101.6739 236° Southwest 245 282 14,100  Level Albuquerque Center
Sat 02:53:31 PM 34.6211 -101.7403 232° Southwest 246 283 14,100  Level Albuquerque Center
Sat 02:54:33 PM 34.5828 -101.8086 236° Southwest 246 283 14,100  Level Albuquerque Center
Sat 02:55:35 PM 34.5378 -101.8936 237° Southwest 246 283 14,100 -49 Level Albuquerque Center
Sat 02:56:36 PM 34.4953 -101.9611 233° Southwest 247 284 14,000  Descending Albuquerque Center
Sat 02:57:38 PM 34.4564 -102.0303 236° Southwest 247 284 14,100  Climbing Albuquerque Center
Sat 02:58:40 PM 34.4172 -102.0994 236° Southwest 247 284 14,000  Descending Albuquerque Center
Sat 02:59:41 PM 34.3778 -102.1658 234° Southwest 247 284 14,100 49 Climbing Albuquerque Center
Sat 03:00:43 PM 34.3381 -102.2375 236° Southwest 251 289 14,100  Level Albuquerque Center
Sat 03:01:44 PM 34.2964 -102.3075 234° Southwest 252 290 14,100  Level Albuquerque Center
Sat 03:02:46 PM 34.2553 -102.3778 235° Southwest 254 292 14,100  Level Albuquerque Center
Sat 03:03:47 PM 34.2106 -102.4561 235° Southwest 254 292 14,100 -49 Level Albuquerque Center
Sat 03:04:49 PM 34.1686 -102.5250 234° Southwest 254 292 14,000 -49 Descending Albuquerque Center
Sat 03:05:50 PM 34.1294 -102.5967 237° Southwest 256 295 14,000  Level Albuquerque Center
Sat 03:06:52 PM 34.0886 -102.6658 235° Southwest 256 295 14,000 48 Level Albuquerque Center
Sat 03:07:54 PM 34.0486 -102.7378 236° Southwest 256 295 14,100 49 Climbing Albuquerque Center
Sat 03:08:55 PM 33.9972 -102.8206 233° Southwest 256 295 14,100  Level Albuquerque Center
Sat 03:09:57 PM 33.9594 -102.8894 237° Southwest 254 292 14,100  Level Albuquerque Center
Sat 03:10:58 PM 33.9183 -102.9581 234° Southwest 254 292 14,100 -49 Level Albuquerque Center
Sat 03:12:00 PM 33.8769 -103.0278 234° Southwest 254 292 14,000  Descending Albuquerque Center
Sat 03:13:02 PM 33.8350 -103.0983 234° Southwest 255 293 14,100  Climbing Albuquerque Center
Sat 03:14:03 PM 33.7950 -103.1653 234° Southwest 255 293 14,000 -49 Descending Albuquerque Center
Sat 03:15:05 PM 33.7536 -103.2350 234° Southwest 255 293 14,000  Level Albuquerque Center
Sat 03:16:08 PM 33.7058 -103.3169 235° Southwest 255 293 14,000  Level Albuquerque Center
Sat 03:17:08 PM 33.6642 -103.3872 235° Southwest 254 292 14,000 50 Level Albuquerque Center
Sat 03:18:09 PM 33.6200 -103.4581 233° Southwest 258 297 14,100  Climbing Albuquerque Center
Sat 03:19:11 PM 33.5794 -103.5278 235° Southwest 259 298 14,000  Descending Albuquerque Center
Sat 03:20:13 PM 33.5389 -103.5956 234° Southwest 258 297 14,100  Climbing Albuquerque Center
Sat 03:21:14 PM 33.4981 -103.6650 235° Southwest 258 297 14,000 -49 Descending Albuquerque Center
Sat 03:22:16 PM 33.4489 -103.7508 236° Southwest 258 297 14,000 49 Level Albuquerque Center
Sat 03:23:17 PM 33.4067 -103.8194 234° Southwest 257 296 14,100 49 Climbing Albuquerque Center
Sat 03:24:19 PM 33.3589 -103.8839 228° Southwest 257 296 14,100 -49 Level Albuquerque Center
Sat 03:25:20 PM 33.3092 -103.9553 230° Southwest 257 296 14,000 -48 Descending Albuquerque Center
Sat 03:26:24 PM 33.2628 -104.0214 230° Southwest 258 297 14,000 49 Level Albuquerque Center
Sat 03:27:23 PM 33.2175 -104.0881 231° Southwest 258 297 14,100  Climbing Albuquerque Center
Sat 03:28:25 PM 33.1664 -104.1578 229° Southwest 258 297 14,000  Descending Albuquerque Center
Sat 03:29:27 PM 33.1208 -104.2247 231° Southwest 259 298 14,100 49 Climbing Albuquerque Center
Sat 03:30:28 PM 33.0742 -104.2897 229° Southwest 259 298 14,100  Level Albuquerque Center
Sat 03:31:30 PM 33.0247 -104.3528 227° Southwest 259 298 14,100 -49 Level Albuquerque Center
Sat 03:32:31 PM 32.9761 -104.4264 232° Southwest 259 298 14,000 -49 Descending Albuquerque Center
Sat 03:33:33 PM 32.9294 -104.4942 231° Southwest 260 299 14,000 48 Level Albuquerque Center
Sat 03:34:35 PM 32.8825 -104.5594 229° Southwest 261 300 14,100  Climbing Albuquerque Center
Sat 03:35:36 PM 32.8331 -104.6311 231° Southwest 261 300 14,000  Descending Albuquerque Center
Sat 03:36:38 PM 32.7864 -104.7011 232° Southwest 269 310 14,100  Climbing Albuquerque Center
Sat 03:37:39 PM 32.7372 -104.7653 228° Southwest 267 307 14,000 -98 Descending Albuquerque Center
Sat 03:38:41 PM 32.6831 -104.8342 227° Southwest 265 305 13,900  Descending Albuquerque Center
Sat 03:39:42 PM 32.6339 -104.9017 229° Southwest 267 307 14,000  Climbing Albuquerque Center
Sat 03:40:44 PM 32.5858 -104.9717 231° Southwest 271 312 13,900 -48 Descending Albuquerque Center
Sat 03:41:46 PM 32.5428 -105.0414 234° Southwest 277 319 13,900 49 Level Albuquerque Center
Sat 03:42:47 PM 32.4936 -105.1103 230° Southwest 276 318 14,000  Climbing Albuquerque Center
Sat 03:43:49 PM 32.4428 -105.1753 227° Southwest 275 316 13,900 -49 Descending Albuquerque Center
Sat 03:44:50 PM 32.3867 -105.2581 231° Southwest 272 313 13,900 -341 Level Albuquerque Center
Sat 03:45:52 PM 32.3414 -105.3244 231° Southwest 268 308 13,200 -732 Descending Albuquerque Center
Sat 03:46:53 PM 32.2969 -105.3903 231° Southwest 260 299 12,400 -878 Descending Albuquerque Center
Sat 03:47:55 PM 32.2486 -105.4517 227° Southwest 258 297 11,400 -1,019 Descending Albuquerque Center
Sat 03:48:39 PM 32.2081 -105.5000 225° Southwest 250 288 10,600 -968 Descending Albuquerque Center
Sat 03:48:57 PM 32.2025 -105.5136 244° Southwest 257 296 10,400 -700 Descending Albuquerque Center
Sat 03:49:39 PM 32.1617 -105.5600 224° Southwest 247 284 9,900 -492 Descending Albuquerque Center
Sat 03:49:58 PM 32.1594 -105.5725 258° West 250 288 9,900 98 Level Albuquerque Center
Sat 03:50:40 PM 32.1233 -105.6175 227° Southwest 230 265 10,000 97 Climbing Albuquerque Center
Sat 03:51:00 PM 32.1192 -105.6294 248° West 234 269 10,000 98 Level Albuquerque Center
Sat 03:51:41 PM 32.0792 -105.6792 226° Southwest 242 278 10,100  Climbing Albuquerque Center
Sat 03:52:01 PM 32.0742 -105.6892 239° Southwest 240 276 10,000 -100 Descending Albuquerque Center
Sat 03:52:41 PM 32.0328 -105.7386 225° Southwest 247 284 10,000 97 Level Albuquerque Center
Sat 03:53:03 PM 32.0186 -105.7619 234° Southwest 245 282 10,100  Climbing Albuquerque Center
Sat 03:53:42 PM 31.9911 -105.8019 231° Southwest 251 289 10,000 -98 Descending Albuquerque Center
Sat 03:54:04 PM 31.9753 -105.8256 232° Southwest 248 285 10,000 -885 Level Albuquerque Center
Sat 03:54:43 PM 31.9542 -105.8692 240° Southwest 244 281 9,100 -1,258 Descending Albuquerque Center
Sat 03:55:06 PM 31.9450 -105.8956 248° West 247 284 8,700 -600 Descending Albuquerque Center
Sat 03:55:43 PM 31.9275 -105.9436 247° West 225 259 8,500 -197 Descending Albuquerque Center
Sat 03:56:07 PM 31.9233 -105.9617 255° West 229 264 8,500 98 Level Albuquerque Center
Sat 03:56:44 PM 31.9083 -106.0136 251° West 221 254 8,600  Climbing Albuquerque Center
Sat 03:57:09 PM 31.9003 -106.0311 242° Southwest 226 260 8,500 -500 Descending Albuquerque Center
Sat 03:57:44 PM 31.8778 -106.0789 241° Southwest 231 266 8,100 -774 Descending Albuquerque Center
Sat 03:58:11 PM 31.8636 -106.1036 236° Southwest 228 262 7,700 -689 Descending Albuquerque Center
Sat 03:58:45 PM 31.8342 -106.1322 220° Southwest 224 258 7,400 -492 Descending Albuquerque Center
Sat 03:59:12 PM 31.8250 -106.1464 233° Southwest 217 250 7,200 -984 Descending Albuquerque Center
Sat 03:59:46 PM 31.8086 -106.1914 247° West 202 232 6,400 -1,065 Descending Albuquerque Center
Sat 04:00:14 PM 31.7994 -106.2194 249° West 203 234 6,100 -444 Descending Albuquerque Center
Sat 04:00:40 PM 31.7933 -106.2475 256° West 191 220 6,000 -492 Descending Albuquerque Center
Sat 04:01:15 PM 31.7958 -106.2756 276° West 173 199 5,600 -885 Descending Albuquerque Center
Sat 04:01:41 PM 31.7967 -106.3017 272° West 157 181 5,100 -968 Descending Albuquerque Center
Sat 04:02:17 PM 31.7992 -106.3289 276° West 165 190 4,600 -673 Descending Albuquerque Center
Sat 04:03:19 PM 31.8031 -106.3847 275° West 160 184 4,000 -581 Descending Albuquerque Center
Sat 04:05:00 PM 31.8072 -106.3764 90° East  Level Estimated
Sat 04:12:00 PM 31.8072 -106.3764 90° East  Level Estimated
Sat 04:13:00 PM 31.8072 -106.3764 90° East  Level Estimated
Sat 04:14:00 PM 31.8072 -106.3764 90° East  Level Estimated

Login

Don't have an account? Register now (free) for customized features, flight alerts, and more!